Latest Weather Observations for Cerberus

IDV60801

Issued at 5:05 pm EST Tuesday 22 July 2014 (issued every 30 minutes, with the page automatically refreshed every 10 minutes)

About weather observations | Map of weather stations | Latest weather observations for VIC | Other Formats
Station Details ID: 086361 Name: CERBERUS Lat: -38.36 Lon: 145.18 Height: 12.69 m
Data from the previous 72 hours. | See also: Recent months at Cerberus
Date/Time
EST
Temp
°C
App
Temp
°C
Dew
Point
Rel
Hum
%
Delta-T
°C
Wind Press
QNH
hPa
Press
MSL
hPa
Rain
since 9 am
mm
Dir
 
Spd
km/h
Gust
km/h
Spd
kts
Gust
kts
22/05:00pm 10.2 8.6 6.2 76 1.8 ESE 4 6 2 3 1024.4 1024.4 0.0
22/04:30pm 11.2 9.7 6.9 75 2.0 ESE 4 7 2 4 1024.4 - 0.0
22/04:00pm 11.6 9.7 6.9 73 2.2 ESE 6 9 3 5 1024.5 1024.5 0.0
22/03:30pm 11.4 9.5 6.5 72 2.3 E 6 7 3 4 1024.6 - 0.0
22/03:00pm 11.5 9.6 7.6 77 1.9 E 7 11 4 6 1024.6 1024.6 0.0
22/02:30pm 11.4 10.0 8.8 84 1.3 ESE 6 7 3 4 1024.8 - 0.0
22/02:00pm 11.7 10.6 9.8 88 1.0 ESE 6 7 3 4 1024.9 1024.9 0.0
22/01:30pm 11.0 10.1 9.3 89 0.8 ENE 4 7 2 4 1025.2 - 0.0
22/01:00pm 10.7 9.8 9.3 91 0.7 ENE 4 6 2 3 1025.6 1025.6 0.0
22/12:30pm 9.4 7.9 8.3 93 0.5 ENE 6 7 3 4 1026.0 - 0.0
22/12:00pm 8.5 6.8 7.6 94 0.4 ENE 6 7 3 4 1026.3 1026.3 0.0
22/11:30am 7.4 5.5 6.5 94 0.4 ENE 6 7 3 4 1026.7 - 0.0
22/11:00am 6.4 4.6 5.5 94 0.4 NE 4 4 2 2 1027.0 1027.0 0.0
22/10:30am 5.7 3.8 4.8 94 0.4 NE 4 7 2 4 1027.0 - 0.0
22/10:00am 5.0 2.6 4.1 94 0.4 NE 6 9 3 5 1026.9 1026.9 0.0
22/09:30am 4.4 2.6 3.5 94 0.4 NE 2 4 1 2 1026.8 - 0.0
22/09:00am 3.8 1.9 2.9 94 0.4 NE 2 4 1 2 1026.8 1026.8 0.2
22/08:30am 3.6 0.9 2.7 94 0.4 ENE 6 7 3 4 1026.5 - 0.2
22/08:00am 3.1 0.7 2.2 94 0.4 NE 4 6 2 3 1026.5 1026.5 0.2
22/07:30am 3.1 0.7 2.1 93 0.4 NE 4 6 2 3 1026.2 - 0.2
22/07:00am 3.0 0.9 2.0 93 0.4 NE 2 4 1 2 1026.0 1026.0 0.2
22/06:30am 3.4 1.8 2.4 93 0.4 CALM 0 2 0 1 1025.5 - 0.2
22/06:00am 4.3 2.5 3.3 93 0.4 NE 2 4 1 2 1025.2 1025.2 0.2
22/05:30am 4.9 3.2 3.9 93 0.4 NE 2 6 1 3 1025.3 - 0.2
22/05:00am 4.1 2.6 3.1 93 0.4 CALM 0 4 0 2 1025.1 1025.1 0.2
22/04:30am 3.5 1.5 2.5 93 0.4 ENE 2 4 1 2 1025.0 - 0.2
22/04:00am 2.3 0.5 1.3 93 0.4 CALM 0 2 0 1 1024.9 1024.9 0.2
22/03:30am 1.7 -0.6 0.5 92 0.4 E 2 4 1 2 1024.8 - 0.2
22/03:00am 1.9 0.0 0.7 92 0.4 CALM 0 0 0 0 1025.0 1025.0 0.2
22/02:30am 2.2 0.4 1.0 92 0.5 CALM 0 0 0 0 1024.9 - 0.2
22/02:00am 2.4 0.6 1.2 92 0.5 CALM 0 0 0 0 1025.0 1025.0 0.2
22/01:30am 2.5 0.7 1.3 92 0.5 CALM 0 0 0 0 1025.0 - 0.2
22/01:00am 2.9 1.2 1.7 92 0.5 CALM 0 0 0 0 1025.1 1025.1 0.2
22/12:30am 3.2 1.5 1.9 91 0.5 CALM 0 0 0 0 1025.3 - 0.0
22/12:00am 3.4 1.7 2.1 91 0.5 E 0 0 0 0 1025.3 1025.3 0.0
 
Date/Time
EST
Temp
°C
App
Temp
°C
Dew
Point
Rel
Hum
%
Delta-T
°C
Wind Press
QNH
hPa
Press
MSL
hPa
Rain
since 9 am
mm
Dir
 
Spd
km/h
Gust
km/h
Spd
kts
Gust
kts
21/11:30pm 3.2 1.5 1.9 91 0.5 CALM 0 2 0 1 1025.5 - 0.0
21/11:00pm 3.5 1.1 2.2 91 0.5 E 4 6 2 3 1025.6 1025.6 0.0
21/10:30pm 4.1 2.2 2.6 90 0.6 E 2 4 1 2 1025.6 - 0.0
21/10:00pm 4.7 2.5 3.2 90 0.6 E 4 6 2 3 1025.5 1025.5 0.0
21/09:30pm 4.8 3.4 3.3 90 0.6 CALM 0 0 0 0 1025.4 - 0.0
21/09:00pm 4.8 3.3 3.1 89 0.7 CALM 0 0 0 0 1025.3 1025.3 0.0
21/08:30pm 5.9 4.6 4.2 89 0.7 CALM 0 0 0 0 1025.2 - 0.0
21/08:00pm 6.4 5.2 4.7 89 0.7 CALM 0 0 0 0 1025.3 1025.3 0.0
21/07:30pm 6.9 5.8 5.1 88 0.8 CALM 0 4 0 2 1025.3 - 0.0
21/07:00pm 7.1 5.6 5.1 87 0.9 E 2 4 1 2 1025.3 1025.3 0.0
21/06:30pm 7.9 6.5 5.7 86 1.0 E 2 4 1 2 1025.1 - 0.0
21/06:00pm 8.8 7.6 6.4 85 1.1 ENE 2 2 1 1 1025.0 1025.0 0.0
21/05:30pm 9.3 8.1 6.6 83 1.3 ENE 2 4 1 2 1024.8 - 0.0
21/05:00pm 9.9 9.2 6.8 81 1.4 CALM 0 0 0 0 1024.7 1024.7 0.0
21/04:30pm 10.8 9.8 7.3 79 1.7 ENE 2 4 1 2 1024.6 - 0.0
21/04:00pm 11.3 10.6 7.0 75 2.0 CALM 0 2 0 1 1024.6 1024.6 0.0
21/03:30pm 11.5 10.6 7.6 77 1.9 E 2 6 1 3 1024.6 - 0.0
21/03:00pm 11.5 10.1 8.9 84 1.3 ENE 6 7 3 4 1024.4 1024.4 0.0
21/02:30pm 11.1 9.8 9.2 88 0.9 E 6 9 3 5 1024.4 - 0.0
21/02:00pm 11.1 9.9 9.7 91 0.7 E 6 7 3 4 1024.6 1024.6 0.0
21/01:30pm 10.6 10.1 9.4 92 0.6 WNW 2 4 1 2 1024.9 - 0.0
21/01:00pm 10.4 9.9 9.5 94 0.4 NNE 2 6 1 3 1025.2 1025.2 0.0
21/12:30pm 9.6 8.6 8.7 94 0.4 N 4 7 2 4 1025.5 - 0.0
21/12:00pm 8.9 8.1 8.0 94 0.4 NE 2 6 1 3 1025.9 1025.9 0.0
21/11:30am 8.2 6.4 7.3 94 0.4 N 6 7 3 4 1026.3 - 0.0
21/11:00am 8.1 6.3 7.2 94 0.4 N 6 9 3 5 1026.5 1026.5 0.0
21/10:30am 7.7 6.2 6.8 94 0.4 N 4 7 2 4 1026.6 - 0.0
21/10:00am 7.5 6.0 6.6 94 0.4 NE 4 7 2 4 1026.7 1026.7 0.0
21/09:30am 7.3 5.7 6.4 94 0.4 N 4 4 2 2 1026.6 - 0.0
21/09:00am 7.0 5.3 6.1 94 0.4 N 4 7 2 4 1026.6 1026.6 0.0
21/08:30am 6.7 5.0 5.8 94 0.4 NNE 4 7 2 4 1026.5 - 0.0
21/08:00am 6.2 4.4 5.3 94 0.4 S 4 6 2 3 1026.5 1026.5 0.0
21/07:30am 5.9 4.0 5.0 94 0.4 S 4 6 2 3 1026.4 - 0.0
21/07:00am 6.0 4.5 5.0 93 0.4 S 2 4 1 2 1026.2 1026.2 0.0
21/06:30am 5.8 3.9 4.9 94 0.4 S 4 6 2 3 1025.9 - 0.0
21/06:00am 5.0 2.5 4.0 93 0.4 S 6 7 3 4 1025.8 1025.8 0.0
21/05:30am 4.8 3.4 3.8 93 0.4 CALM 0 0 0 0 1025.8 - 0.0
21/05:00am 5.3 4.0 4.3 93 0.4 CALM 0 0 0 0 1025.8 1025.8 0.0
21/04:30am 5.7 4.5 4.7 93 0.4 CALM 0 0 0 0 1025.8 - 0.0
21/04:00am 6.0 4.1 5.0 93 0.4 S 4 6 2 3 1025.9 1025.9 0.0
21/03:30am 5.5 3.5 4.3 92 0.5 S 4 4 2 2 1026.0 - 0.0
21/03:00am 5.6 4.4 4.4 92 0.5 CALM 0 0 0 0 1026.1 1026.1 0.0
21/02:30am 6.2 4.4 5.2 93 0.4 S 4 6 2 3 1026.1 - 0.0
21/02:00am 5.6 4.4 4.4 92 0.5 CALM 0 0 0 0 1026.0 1026.0 0.0
21/01:30am 5.7 3.7 4.5 92 0.5 S 4 6 2 3 1026.0 - 0.0
21/01:00am 6.2 5.1 5.0 92 0.5 CALM 0 0 0 0 1026.1 1026.1 0.0
21/12:30am 6.3 5.2 5.1 92 0.5 CALM 0 0 0 0 1026.3 - 0.0
21/12:00am 6.2 5.1 5.0 92 0.5 CALM 0 0 0 0 1026.5 1026.5 0.0
 
Date/Time
EST
Temp
°C
App
Temp
°C
Dew
Point
Rel
Hum
%
Delta-T
°C
Wind Press
QNH
hPa
Press
MSL
hPa
Rain
since 9 am
mm
Dir
 
Spd
km/h
Gust
km/h
Spd
kts
Gust
kts
20/11:30pm 5.7 4.4 4.3 91 0.6 CALM 0 0 0 0 1026.7 - 0.0
20/11:00pm 5.8 4.6 4.4 91 0.6 CALM 0 0 0 0 1026.9 1026.9 0.0
20/10:30pm 5.6 4.3 4.1 90 0.6 CALM 0 0 0 0 1026.9 - 0.0
20/10:00pm 6.1 4.9 4.6 90 0.6 CALM 0 0 0 0 1027.0 1027.0 0.0
20/09:30pm 6.2 4.6 4.7 90 0.6 S 2 2 1 1 1026.9 - 0.0
20/09:00pm 6.8 5.3 5.1 89 0.7 S 2 2 1 1 1026.8 1026.8 0.0
20/08:30pm 7.3 6.3 5.6 89 0.8 CALM 0 0 0 0 1026.9 - 0.0
20/08:00pm 7.3 5.9 5.4 88 0.8 S 2 4 1 2 1026.9 1026.9 0.0
20/07:30pm 7.8 6.1 5.8 87 0.9 S 4 4 2 2 1027.0 - 0.0
20/07:00pm 9.0 8.2 6.6 85 1.1 CALM 0 0 0 0 1026.9 1026.9 0.0
20/06:30pm 10.2 9.6 7.6 84 1.2 CALM 0 0 0 0 1026.7 - 0.0
20/06:00pm 10.9 10.5 8.1 83 1.4 CALM 0 0 0 0 1026.8 1026.8 0.0
20/05:30pm 11.2 10.8 8.1 81 1.5 CALM 0 4 0 2 1026.6 - 0.0
20/05:00pm 11.5 10.3 8.0 79 1.7 S 4 7 2 4 1026.6 1026.6 0.0
20/04:30pm 12.0 10.8 8.1 77 1.9 SSW 4 6 2 3 1026.6 - 0.0
20/04:00pm 12.0 10.9 8.3 78 1.8 SSW 4 6 2 3 1026.5 1026.5 0.0
20/03:30pm 12.1 10.5 8.2 77 1.9 SW 6 7 3 4 1026.5 - 0.0
20/03:00pm 12.9 11.4 8.6 75 2.1 W 6 7 3 4 1026.3 1026.3 0.0
20/02:30pm 12.6 11.1 8.5 76 2.0 W 6 7 3 4 1026.4 - 0.0
20/02:00pm 12.7 11.1 8.6 76 2.0 W 7 11 4 6 1026.6 1026.6 0.0
20/01:30pm 12.7 11.2 9.2 79 1.8 WNW 7 13 4 7 1026.8 - 0.0
20/01:00pm 12.7 11.5 10.2 85 1.3 NW 7 13 4 7 1027.1 1027.1 0.0
20/12:30pm 12.0 11.0 10.2 89 0.9 NW 6 11 3 6 1027.6 - 0.0
20/12:00pm 11.3 10.2 9.9 91 0.7 NNW 6 7 3 4 1027.9 1027.9 0.0
20/11:30am 10.7 8.9 9.5 92 0.6 NW 9 11 5 6 1028.2 - 0.0
20/11:00am 10.5 9.3 9.4 93 0.5 WNW 6 7 3 4 1028.5 1028.5 0.0
20/10:30am 10.4 9.1 9.3 93 0.5 WNW 6 7 3 4 1028.6 - 0.0
20/10:00am 10.1 8.7 9.0 93 0.5 NW 6 7 3 4 1028.5 1028.5 0.0
20/09:30am 9.2 8.8 8.1 93 0.5 CALM 0 0 0 0 1028.4 - 0.0
20/09:00am 8.3 7.3 7.2 93 0.5 WNW 2 4 1 2 1028.3 1028.3 0.4
20/08:30am 7.5 6.7 6.4 93 0.5 CALM 0 4 0 2 1028.1 - 0.4
20/08:00am 6.2 4.7 5.2 93 0.4 WNW 2 4 1 2 1027.9 1027.9 0.4
20/07:30am 6.6 4.8 5.6 93 0.4 WNW 4 7 2 4 1027.8 - 0.4
20/07:00am 7.0 5.3 5.9 93 0.5 WNW 4 6 2 3 1027.8 1027.8 0.4
20/06:30am 7.1 5.4 6.0 93 0.5 WNW 4 6 2 3 1027.6 - 0.2
20/06:00am 7.4 5.4 6.3 93 0.5 NW 6 7 3 4 1027.4 1027.4 0.2
20/05:30am 7.4 5.8 6.3 93 0.5 NW 4 6 2 3 1027.3 - 0.2
20/05:00am 6.9 5.2 5.7 92 0.5 NW 4 4 2 2 1027.4 1027.4 0.2
20/04:30am 7.0 5.3 5.8 92 0.5 WNW 4 6 2 3 1027.4 - 0.2
20/04:00am 7.4 5.8 6.2 92 0.5 WNW 4 4 2 2 1027.4 1027.4 0.2
20/03:30am 7.7 6.2 6.6 93 0.5 WNW 4 6 2 3 1027.5 - 0.2
20/03:00am 6.9 4.8 5.7 92 0.5 W 6 7 3 4 1027.7 1027.7 0.2
20/02:30am 7.5 5.9 6.3 92 0.5 WNW 4 7 2 4 1027.8 - 0.2
20/02:00am 7.5 5.5 6.3 92 0.5 WNW 6 7 3 4 1027.9 1027.9 0.2
20/01:30am 7.7 5.6 6.5 92 0.5 WNW 7 9 4 5 1028.0 - 0.2
20/01:00am 7.0 5.3 5.8 92 0.5 WNW 4 6 2 3 1028.3 1028.3 0.2
20/12:30am 7.2 5.5 6.0 92 0.5 WNW 4 6 2 3 1028.6 - 0.2
20/12:00am 7.4 5.8 6.2 92 0.5 WNW 4 7 2 4 1028.7 1028.7 0.2
 
Date/Time
EST
Temp
°C
App
Temp
°C
Dew
Point
Rel
Hum
%
Delta-T
°C
Wind Press
QNH
hPa
Press
MSL
hPa
Rain
since 9 am
mm
Dir
 
Spd
km/h
Gust
km/h
Spd
kts
Gust
kts
19/11:30pm 7.4 5.7 6.0 91 0.6 WNW 4 7 2 4 1029.0 - 0.2
19/11:00pm 7.5 5.8 6.1 91 0.6 NW 4 6 2 3 1029.1 1029.1 0.2
19/10:30pm 8.0 7.2 6.6 91 0.6 CALM 0 0 0 0 1029.3 - 0.2
19/10:00pm 8.2 7.1 6.8 91 0.6 WNW 2 6 1 3 1029.5 1029.5 0.2
19/09:30pm 8.3 6.8 6.8 90 0.7 NW 4 6 2 3 1029.8 - 0.2
19/09:00pm 8.8 7.4 7.3 90 0.7 NW 4 7 2 4 1029.7 1029.7 0.2
19/08:30pm 9.4 7.8 7.8 90 0.8 NW 6 7 3 4 1029.8 - 0.2
19/08:00pm 9.4 8.1 7.7 89 0.8 NW 4 6 2 3 1030.2 1030.2 0.0
19/07:30pm 9.8 8.2 7.9 88 0.9 W 6 7 3 4 1030.2 - 0.0
19/07:00pm 9.6 7.9 7.4 86 1.0 WNW 6 7 3 4 1030.0 1030.0 0.0
19/06:30pm 9.2 7.3 6.5 83 1.3 WNW 6 7 3 4 1029.7 - 0.0
19/06:00pm 10.0 8.0 7.3 83 1.3 WNW 7 9 4 5 1029.5 1029.5 0.0
19/05:30pm 9.5 7.5 6.2 80 1.5 WNW 6 7 3 4 1029.3 - 0.0

Other Formats:

Comma delimited format used in spreadsheet applications
http://www.bom.gov.au/fwo/IDV60801/IDV60801.94898.axf

JavaScript Object Notation format (JSON) in row-major order
http://www.bom.gov.au/fwo/IDV60801/IDV60801.94898.json